Time;durP1;ratioP1;P1;durP2;ratioP2;P2;SDS_P1;SDS_P2;PMS_P1;PMS_P2;Temp;Humidity;BMP_temperature;BMP_pressure;BME280_temperature;BME280_humidity;BME280_pressure;Samples;Min_cycle;Max_cycle;Signal;HPM_P1;HPM_P2
2022/03/22 00:00:29;;;;;;;24.65;18.88;;;;;;;9.31;76.85;103039.41;5056995;28;20024;-35
2022/03/22 00:02:55;;;;;;;20.02;17.33;;;;;;;9.39;76.75;103052.06;5056331;28;20475;-35
2022/03/22 00:05:20;;;;;;;20.67;17.65;;;;;;;9.39;77.50;103055.63;5056278;28;20395;-35
2022/03/22 00:07:46;;;;;;;23.63;18.85;;;;;;;9.32;78.07;103059.16;5055789;28;20111;-35
2022/03/22 00:10:11;;;;;;;23.90;18.70;;;;;;;9.31;78.85;103062.88;5056562;28;20129;-35
2022/03/22 00:12:37;;;;;;;20.73;18.00;;;;;;;9.25;77.76;103048.19;5056048;28;20329;-35
2022/03/22 00:15:04;;;;;;;22.20;17.45;;;;;;;9.27;77.54;103056.94;5056796;28;20025;-35
2022/03/22 00:17:29;;;;;;;20.80;17.17;;;;;;;9.22;77.71;103054.78;5055938;28;20056;-35
2022/03/22 00:19:55;;;;;;;19.52;17.42;;;;;;;9.21;77.74;103057.63;5055880;28;20396;-35
2022/03/22 00:22:20;;;;;;;21.10;17.70;;;;;;;9.19;78.10;103062.38;5055641;28;20028;-35
2022/03/22 00:24:46;;;;;;;19.88;16.38;;;;;;;9.19;77.76;103056.97;5055623;28;20477;-35
2022/03/22 00:27:12;;;;;;;21.17;17.92;;;;;;;9.15;78.18;103050.22;5055430;28;20040;-35
2022/03/22 00:29:37;;;;;;;21.15;17.80;;;;;;;9.13;78.33;103057.66;5055855;28;20339;-35
2022/03/22 00:32:06;;;;;;;19.92;17.60;;;;;;;9.08;78.99;103058.16;5055754;28;20032;-35
2022/03/22 00:34:32;;;;;;;26.27;19.45;;;;;;;9.06;78.00;103059.31;5055942;28;20059;-34
2022/03/22 00:36:58;;;;;;;19.53;17.43;;;;;;;9.05;77.79;103063.03;5056575;28;20140;-35
2022/03/22 00:39:25;;;;;;;23.15;17.77;;;;;;;8.99;78.09;103065.38;5055841;28;20025;-35
2022/03/22 00:41:52;;;;;;;23.05;19.10;;;;;;;8.97;78.59;103064.69;5056646;28;20048;-35
2022/03/22 00:44:17;;;;;;;22.38;19.10;;;;;;;8.92;78.69;103067.03;5055202;28;20039;-35
2022/03/22 00:46:43;;;;;;;23.75;19.13;;;;;;;8.89;79.11;103074.66;5056043;28;20112;-35
2022/03/22 00:49:08;;;;;;;19.77;16.83;;;;;;;8.66;79.04;103032.09;5055497;28;20408;-35
2022/03/22 00:51:35;;;;;;;21.83;18.83;;;;;;;8.78;78.79;103056.88;5055652;28;20056;-35
2022/03/22 00:54:02;;;;;;;;;;;;;;;8.91;77.84;103073.47;5055554;28;20777;-35
2022/03/22 00:56:29;;;;;;;23.08;18.50;;;;;;;8.70;79.34;103065.81;5055651;28;19921;-35
2022/03/22 01:00:01;;;;;;;23.80;19.08;;;;;;;8.56;79.73;103062.91;5056088;28;20029;-35
2022/03/22 01:01:40;;;;;;;20.05;16.75;;;;;;;8.67;79.69;103065.31;5054692;28;20037;-35
2022/03/22 01:04:06;;;;;;;26.35;18.15;;;;;;;8.63;80.07;103069.34;5055425;28;20112;-35
2022/03/22 01:06:32;;;;;;;;;;;;;;;8.71;78.67;103072.91;5055887;28;20103;-35
2022/03/22 01:08:57;;;;;;;22.35;19.92;;;;;;;8.55;79.57;103069.31;5055343;28;19917;-35
2022/03/22 01:11:23;;;;;;;20.47;18.13;;;;;;;8.45;80.56;103051.44;5055110;28;20426;-35
2022/03/22 01:13:49;;;;;;;24.13;18.30;;;;;;;8.44;77.81;103070.44;5054669;28;20082;-35
2022/03/22 01:16:15;;;;;;;22.48;17.38;;;;;;;8.44;79.03;103070.44;5055770;28;20099;-35
2022/03/22 01:18:41;;;;;;;22.27;18.35;;;;;;;8.48;80.11;103072.66;5054637;28;20033;-35
2022/03/22 01:21:07;;;;;;;23.58;18.70;;;;;;;8.38;79.80;103074.63;5055623;28;20048;-34
2022/03/22 01:23:32;;;;;;;21.95;18.70;;;;;;;8.39;79.89;103072.78;5054801;28;20381;-35
2022/03/22 01:25:58;;;;;;;22.75;19.35;;;;;;;8.34;80.53;103067.00;5054752;28;20385;-34
2022/03/22 01:28:23;;;;;;;24.00;19.33;;;;;;;8.31;80.33;103075.44;5055223;28;20025;-35
2022/03/22 01:30:49;;;;;;;25.90;19.07;;;;;;;8.34;80.81;103075.94;5054949;28;20409;-35
2022/03/22 01:33:15;;;;;;;22.65;19.88;;;;;;;8.31;81.06;103073.56;5055177;28;20256;-35
2022/03/22 01:35:41;;;;;;;22.52;18.80;;;;;;;8.30;81.08;103074.59;5054705;28;20056;-35
2022/03/22 01:38:07;;;;;;;22.77;18.05;;;;;;;8.23;81.55;103074.38;5054377;28;20032;-35
2022/03/22 01:40:33;;;;;;;;;;;;;;;8.33;79.58;103079.63;5055273;28;20044;-35
2022/03/22 01:42:59;;;;;;;20.23;17.70;;;;;;;8.24;81.37;103072.50;5054553;28;20095;-35
2022/03/22 01:45:24;;;;;;;21.83;18.40;;;;;;;8.11;81.54;103058.66;5054463;28;20389;-35
2022/03/22 01:47:52;;;;;;;25.75;19.13;;;;;;;8.19;81.84;103077.53;5054747;28;20083;-35
2022/03/22 01:50:22;;;;;;;22.05;19.02;;;;;;;8.12;81.87;103068.44;5053913;28;20024;-35
2022/03/22 01:52:48;;;;;;;20.75;18.10;;;;;;;8.18;81.23;103074.00;5054843;28;20028;-35
2022/03/22 01:55:16;;;;;;;21.65;18.13;;;;;;;8.09;81.00;103072.28;5054876;28;20103;-34
2022/03/22 01:57:41;;;;;;;20.73;17.90;;;;;;;7.99;81.20;103055.38;5054229;28;20033;-34
2022/03/22 02:00:12;;;;;;;21.85;16.48;;;;;;;8.09;81.83;103074.13;5054429;28;20119;-35
2022/03/22 02:08:08;;;;;;;20.58;17.65;;;;;;;8.04;82.13;103071.06;5054023;28;20043;-35
2022/03/22 02:10:34;;;;;;;20.48;16.10;;;;;;;8.00;80.84;103068.72;5053913;28;20071;-35
2022/03/22 02:13:00;;;;;;;20.35;17.92;;;;;;;7.91;81.15;103068.81;5053573;28;20036;-36
2022/03/22 02:15:26;;;;;;;19.42;17.33;;;;;;;7.94;81.81;103053.16;5054656;28;20339;-35
2022/03/22 02:17:51;;;;;;;21.05;17.95;;;;;;;7.93;81.37;103061.41;5053869;28;20059;-35
2022/03/22 02:20:18;;;;;;;20.70;17.73;;;;;;;7.83;81.44;103058.81;5054413;28;20156;-35
2022/03/22 02:22:49;;;;;;;;;;;;;;;7.96;80.31;103064.66;5054098;28;20017;-35
2022/03/22 02:25:15;;;;;;;22.23;17.67;;;;;;;7.73;82.05;103048.16;5053995;28;20273;-34
2022/03/22 02:27:45;;;;;;;;;;;;;;;7.86;80.01;103061.22;5054216;28;20029;-35
2022/03/22 02:30:15;;;;;;;18.40;14.20;;;;;;;7.75;81.28;103065.00;5053718;28;19928;-35
2022/03/22 02:32:47;;;;;;;19.90;16.80;;;;;;;7.68;81.96;103047.78;5053756;28;20025;-35
2022/03/22 02:35:13;;;;;;;19.33;15.75;;;;;;;7.74;82.46;103068.69;5053588;28;20025;-35
2022/03/22 02:37:38;;;;;;;20.60;15.93;;;;;;;7.72;81.92;103064.50;5053221;28;20040;-34
2022/03/22 02:40:07;;;;;;;19.40;15.53;;;;;;;7.69;81.69;103060.25;5053967;28;20359;-34
2022/03/22 02:42:32;;;;;;;19.92;17.40;;;;;;;7.63;81.77;103065.44;5053634;28;20035;-34
2022/03/22 02:44:58;;;;;;;15.48;13.73;;;;;;;7.66;82.45;103065.09;5054134;28;20111;-35
2022/03/22 02:47:23;;;;;;;20.33;16.20;;;;;;;7.54;81.91;103066.38;5053463;28;20029;-35
2022/03/22 02:49:49;;;;;;;20.13;16.38;;;;;;;7.48;81.78;103065.16;5053608;28;20097;-35
2022/03/22 02:52:14;;;;;;;18.93;15.40;;;;;;;7.48;81.99;103067.84;5053786;28;20025;-35
2022/03/22 02:54:39;;;;;;;19.10;15.33;;;;;;;7.52;82.38;103065.69;5053853;28;20417;-35
2022/03/22 02:57:05;;;;;;;16.87;14.80;;;;;;;7.51;82.28;103063.97;5053142;28;20267;-35
2022/03/22 02:59:30;;;;;;;21.07;16.17;;;;;;;7.44;82.55;103070.00;5053755;28;20025;-35
2022/03/22 03:01:57;;;;;;;15.67;13.73;;;;;;;7.46;81.93;103067.97;5051728;28;20033;-35
2022/03/22 03:04:23;;;;;;;17.38;15.40;;;;;;;7.31;81.73;103052.56;5051800;28;20072;-35
2022/03/22 03:06:48;;;;;;;20.02;16.15;;;;;;;7.30;82.78;103073.25;5053010;28;20407;-35
2022/03/22 03:09:14;;;;;;;20.77;15.77;;;;;;;7.23;82.06;103066.81;5052921;28;20071;-36
2022/03/22 03:11:39;;;;;;;18.00;15.10;;;;;;;7.23;82.23;103070.34;5053521;28;20036;-36
2022/03/22 03:16:49;;;;;;;18.48;15.43;;;;;;;7.02;82.56;103061.72;5052996;28;20036;-36
2022/03/22 03:19:14;;;;;;;20.77;15.53;;;;;;;7.06;83.48;103070.31;5052606;28;20020;-36
2022/03/22 03:21:39;;;;;;;22.63;15.27;;;;;;;7.08;82.84;103073.72;5053123;28;20040;-36
2022/03/22 03:24:05;;;;;;;15.80;14.20;;;;;;;7.09;82.68;103075.41;5052496;28;20370;-36
2022/03/22 03:26:30;;;;;;;18.30;15.30;;;;;;;7.04;82.49;103069.66;5052802;28;20017;-36
2022/03/22 03:28:56;;;;;;;17.37;15.00;;;;;;;7.03;83.47;103071.50;5052582;28;20025;-36
2022/03/22 03:31:21;;;;;;;17.53;15.00;;;;;;;6.90;82.46;103060.25;5053050;28;20025;-35
2022/03/22 03:33:46;;;;;;;13.15;11.60;;;;;;;7.03;83.11;103067.94;5053192;28;20465;-35
2022/03/22 03:36:12;;;;;;;18.20;15.17;;;;;;;7.03;82.81;103071.50;5053101;28;20174;-36
2022/03/22 03:38:41;;;;;;;16.43;14.37;;;;;;;7.02;83.14;103072.47;5052766;28;20036;-36
2022/03/22 03:43:54;;;;;;;19.17;15.23;;;;;;;7.01;82.85;103078.84;5052467;28;20040;-36
2022/03/22 03:49:06;;;;;;;19.35;14.80;;;;;;;6.93;83.27;103089.56;5052868;28;20152;-35
2022/03/22 03:51:35;;;;;;;16.23;13.82;;;;;;;6.79;83.41;103058.63;5052540;28;20041;-35
2022/03/22 03:54:01;;;;;;;16.45;14.13;;;;;;;6.89;83.81;103094.38;5052404;28;20048;-35
2022/03/22 03:56:27;;;;;;;17.63;13.40;;;;;;;6.87;83.40;103095.50;5051600;28;20454;-35
2022/03/22 03:58:54;;;;;;;18.63;14.50;;;;;;;6.83;83.17;103096.81;5052566;28;20059;-35
2022/03/22 04:01:21;;;;;;;16.23;14.52;;;;;;;6.68;84.02;103072.28;5052953;28;20025;-35
2022/03/22 04:03:47;;;;;;;;;;;;;;;6.90;82.21;103101.44;5053648;28;20397;-35
2022/03/22 04:06:13;;;;;;;16.90;13.48;;;;;;;6.80;84.28;103100.66;5051577;28;20412;-35
2022/03/22 04:08:39;;;;;;;15.77;13.13;;;;;;;6.73;83.71;103086.13;5053041;28;20112;-35
2022/03/22 04:11:04;;;;;;;17.70;15.27;;;;;;;6.73;83.85;103099.56;5052803;28;20036;-35
2022/03/22 04:13:29;;;;;;;19.27;15.57;;;;;;;6.69;84.14;103104.41;5052626;28;20029;-35
2022/03/22 04:15:55;;;;;;;17.30;14.87;;;;;;;6.74;83.25;103103.97;5053048;28;20124;-35
2022/03/22 04:18:21;;;;;;;16.30;13.27;;;;;;;6.73;83.13;103099.56;5051956;28;20673;-35
2022/03/22 04:20:47;;;;;;;16.38;12.75;;;;;;;6.71;84.08;103105.09;5052302;28;20266;-35
2022/03/22 04:23:13;;;;;;;17.60;14.52;;;;;;;6.42;82.90;103083.75;5052266;28;20033;-35
2022/03/22 04:25:38;;;;;;;17.77;14.18;;;;;;;6.51;84.85;103103.50;5052024;28;20518;-35
2022/03/22 04:33:33;;;;;;;16.38;13.43;;;;;;;6.45;84.78;103107.66;5052419;28;20107;-35
2022/03/22 04:35:59;;;;;;;20.13;14.85;;;;;;;6.37;84.04;103109.38;5052906;28;20029;-36
2022/03/22 04:38:25;;;;;;;20.33;14.88;;;;;;;6.40;84.29;103103.72;5055406;28;20041;-35
2022/03/22 04:40:50;;;;;;;20.53;13.90;;;;;;;6.47;85.11;103112.88;5056318;28;20087;-35
2022/03/22 04:43:16;;;;;;;17.87;14.47;;;;;;;6.39;84.85;103097.50;5055669;28;20036;-35
2022/03/22 04:45:41;;;;;;;16.20;14.37;;;;;;;6.42;83.75;103107.94;5056010;28;20392;-36
2022/03/22 04:48:07;;;;;;;15.60;13.88;;;;;;;6.28;83.58;103078.84;5056056;28;20476;-35
2022/03/22 04:50:32;;;;;;;16.15;13.73;;;;;;;6.24;84.26;103092.72;5055892;28;20029;-35
2022/03/22 04:58:31;;;;;;;15.90;13.55;;;;;;;6.21;84.92;103109.16;5013569;28;20026;-36
2022/03/22 05:00:57;;;;;;;13.27;11.73;;;;;;;6.23;85.56;103105.31;5013244;28;20042;-35
2022/03/22 05:03:22;;;;;;;13.90;12.40;;;;;;;6.24;85.56;103115.06;5013162;28;20107;-35
2022/03/22 05:08:32;;;;;;;19.60;15.00;;;;;;;6.15;84.48;103115.97;5013686;28;20097;-35
2022/03/22 05:10:59;;;;;;;;;;;;;;;6.28;83.57;103123.69;5014155;28;20034;-35
2022/03/22 05:13:24;;;;;;;20.08;14.30;;;;;;;6.10;85.27;103118.22;5012971;28;19916;-35
2022/03/22 05:15:51;;;;;;;19.02;14.55;;;;;;;6.04;84.90;103111.59;5013510;28;20041;-34
2022/03/22 05:18:16;;;;;;;16.63;13.13;;;;;;;6.12;84.70;103130.53;5012846;28;20030;-35
2022/03/22 05:20:41;;;;;;;21.43;15.57;;;;;;;6.04;84.98;103129.56;5013503;28;20037;-34
2022/03/22 05:23:07;;;;;;;20.90;14.60;;;;;;;5.89;85.38;103099.59;5013243;28;20053;-34
2022/03/22 05:25:32;;;;;;;14.83;11.57;;;;;;;6.10;85.62;103131.66;5013317;28;20060;-35
2022/03/22 05:28:00;;;;;;;17.33;13.75;;;;;;;5.97;85.50;103106.97;5012536;28;20038;-34
2022/03/22 05:30:25;;;;;;;18.60;14.05;;;;;;;6.08;85.60;103136.34;5012662;28;20069;-34
2022/03/22 05:32:50;;;;;;;17.83;14.43;;;;;;;6.15;85.64;103135.63;5013177;28;20418;-34
2022/03/22 05:35:16;;;;;;;17.63;14.87;;;;;;;6.11;85.28;103138.75;5030574;28;20048;-34
2022/03/22 05:37:41;;;;;;;17.37;14.87;;;;;;;6.06;85.89;103124.91;5054899;28;20111;-35
2022/03/22 05:40:07;;;;;;;18.80;15.40;;;;;;;6.05;85.06;103128.56;5054617;28;20021;-35
2022/03/22 05:42:36;;;;;;;23.25;15.68;;;;;;;6.09;85.54;103141.56;5054623;28;20071;-35
2022/03/22 05:45:02;;;;;;;22.25;14.90;;;;;;;6.05;84.97;103150.06;5055003;28;20032;-35
2022/03/22 05:47:28;;;;;;;19.08;15.13;;;;;;;6.09;85.81;103144.25;5054250;28;20108;-35
2022/03/22 05:49:54;;;;;;;17.17;15.32;;;;;;;6.16;85.53;103150.75;5054374;28;20029;-35
2022/03/22 05:52:20;;;;;;;20.90;15.48;;;;;;;6.04;85.78;103151.88;5055083;28;20484;-35
2022/03/22 05:54:45;;;;;;;19.45;14.70;;;;;;;6.07;85.15;103148.09;5054577;28;20045;-35
2022/03/22 05:57:11;;;;;;;16.37;13.03;;;;;;;6.19;86.14;103155.81;5054890;28;20064;-35
2022/03/22 05:59:36;;;;;;;16.40;13.80;;;;;;;6.06;85.57;103141.03;5054307;28;20025;-35
2022/03/22 06:02:01;;;;;;;19.00;15.63;;;;;;;6.12;86.19;103149.34;5054499;28;20063;-35
2022/03/22 06:04:27;;;;;;;21.53;15.30;;;;;;;6.13;85.50;103144.81;5054708;28;20446;-34
2022/03/22 06:06:52;;;;;;;18.37;15.07;;;;;;;6.13;85.93;103151.03;5054138;28;20279;-34
2022/03/22 06:09:17;;;;;;;15.83;12.80;;;;;;;6.17;84.79;103152.44;5054252;28;20025;-35
2022/03/22 06:11:43;;;;;;;20.10;14.73;;;;;;;6.21;85.35;103155.69;5054123;28;20479;-35
2022/03/22 06:14:08;;;;;;;14.20;12.67;;;;;;;6.32;86.48;103162.72;5053722;28;20075;-35
2022/03/22 06:16:34;;;;;;;15.70;14.00;;;;;;;6.36;86.25;103159.59;5053848;28;20032;-35
2022/03/22 06:18:59;;;;;;;19.83;15.33;;;;;;;6.28;85.33;103150.56;5053036;28;20294;-35
2022/03/22 06:21:25;;;;;;;14.68;12.68;;;;;;;6.41;85.00;103165.38;5053830;28;20271;-35
2022/03/22 06:23:52;;;;;;;19.23;15.13;;;;;;;6.34;85.55;103161.56;5053647;28;20040;-35
2022/03/22 06:26:17;;;;;;;14.20;12.70;;;;;;;6.38;86.00;103144.16;5054383;28;20111;-35
2022/03/22 06:28:43;;;;;;;15.68;13.60;;;;;;;6.55;85.45;103171.28;5054429;28;20033;-35
2022/03/22 06:31:09;;;;;;;16.17;13.30;;;;;;;6.60;85.61;103174.38;5054374;28;20060;-35
2022/03/22 06:33:34;;;;;;;15.32;13.60;;;;;;;6.68;85.69;103167.22;5053693;28;20029;-35
2022/03/22 06:36:00;;;;;;;17.42;15.25;;;;;;;6.68;85.17;103175.28;5053532;28;20100;-40
2022/03/22 06:38:26;;;;;;;16.90;13.23;;;;;;;6.73;85.02;103164.09;5053370;28;20029;-35
2022/03/22 06:40:52;;;;;;;21.75;15.15;;;;;;;6.70;84.69;103154.50;5053714;28;20032;-35
2022/03/22 06:43:19;;;;;;;18.38;14.68;;;;;;;6.79;83.83;103179.66;5053618;28;20047;-35
2022/03/22 06:45:47;;;;;;;18.42;14.02;;;;;;;6.92;84.25;103169.38;5053865;28;20024;-36
2022/03/22 06:48:15;;;;;;;21.13;16.02;;;;;;;6.91;84.71;103167.69;5053989;28;20345;-36
2022/03/22 06:50:42;;;;;;;19.25;14.75;;;;;;;7.05;84.55;103176.25;5053913;28;20480;-36
2022/03/22 06:53:08;;;;;;;19.73;15.38;;;;;;;7.00;84.58;103160.56;5053502;28;20033;-36
2022/03/22 06:55:35;;;;;;;20.02;16.35;;;;;;;7.13;85.19;103181.75;5053530;28;20057;-36
2022/03/22 06:58:01;;;;;;;23.23;16.17;;;;;;;7.25;84.54;103180.50;5053590;28;20036;-36
2022/03/22 07:00:31;;;;;;;18.67;15.60;;;;;;;7.23;85.05;103174.44;5053862;28;20183;-36
2022/03/22 07:02:57;;;;;;;20.27;15.82;;;;;;;7.40;84.10;103180.81;5053285;28;20033;-36
2022/03/22 07:05:23;;;;;;;;;;;;;;;7.52;82.77;103189.53;5053743;28;20033;-36
2022/03/22 07:07:48;;;;;;;20.17;16.02;;;;;;;7.39;82.04;103161.13;5053338;28;19912;-36
2022/03/22 07:10:16;;;;;;;18.90;15.80;;;;;;;7.63;82.61;103189.31;5053281;28;20032;-36
2022/03/22 07:12:56;;;;;;;19.85;15.90;;;;;;;7.66;82.41;103180.91;5051846;28;20067;-36
2022/03/22 07:15:26;;;;;;;19.55;16.60;;;;;;;7.77;80.58;103188.75;5053799;28;20401;-36
2022/03/22 07:17:52;;;;;;;18.65;14.73;;;;;;;7.89;81.32;103189.34;5053046;28;20116;-34
2022/03/22 07:20:18;;;;;;;;;;;;;;;7.97;81.87;103189.41;5053965;28;20485;-34
2022/03/22 07:22:43;;;;;;;17.88;15.80;;;;;;;8.02;79.57;103194.34;5053265;28;19908;-34
2022/03/22 07:25:10;;;;;;;18.97;16.00;;;;;;;8.08;79.78;103194.56;5053238;28;20031;-34
2022/03/22 07:27:35;;;;;;;;;;;;;;;8.18;80.51;103189.06;5053285;28;20029;-34
2022/03/22 07:30:02;;;;;;;20.67;15.35;;;;;;;8.20;79.64;103192.47;5052909;28;19919;-35
2022/03/22 07:32:28;;;;;;;19.67;15.82;;;;;;;8.11;79.58;103172.69;5053671;28;20086;-35
2022/03/22 07:34:54;;;;;;;21.88;15.95;;;;;;;8.33;78.34;103189.31;5052998;28;20025;-35
2022/03/22 07:37:19;;;;;;;18.23;15.68;;;;;;;8.40;78.97;103199.34;5053172;28;20083;-35
2022/03/22 07:39:45;;;;;;;19.75;16.75;;;;;;;8.45;78.55;103198.88;5051939;28;20457;-35
2022/03/22 07:42:10;;;;;;;17.97;16.00;;;;;;;8.55;78.00;103199.63;5052833;28;20409;-34
2022/03/22 07:44:36;;;;;;;17.20;15.30;;;;;;;8.60;77.95;103199.13;5053143;28;20298;-34
2022/03/22 07:47:02;;;;;;;21.23;15.63;;;;;;;8.65;78.26;103186.00;5052738;28;20079;-35
2022/03/22 07:54:56;;;;;;;20.10;16.40;;;;;;;9.02;77.58;103199.13;5053244;28;20060;-36
2022/03/22 07:57:23;;;;;;;18.08;14.88;;;;;;;9.06;77.45;103183.47;5053517;28;20056;-35
2022/03/22 07:59:48;;;;;;;17.97;15.63;;;;;;;9.25;76.11;103197.53;5052417;28;20113;-36
2022/03/22 08:02:13;;;;;;;20.13;16.00;;;;;;;9.31;76.10;103196.00;5052850;28;20029;-33
2022/03/22 08:04:39;;;;;;;20.93;16.03;;;;;;;9.43;74.87;103197.41;5053173;28;20057;-35
2022/03/22 08:07:04;;;;;;;18.17;14.90;;;;;;;9.58;74.52;103200.28;5052505;28;20454;-34
2022/03/22 08:09:30;;;;;;;18.55;15.65;;;;;;;9.69;74.88;103194.56;5052907;28;20017;-35
2022/03/22 08:11:55;;;;;;;17.47;15.57;;;;;;;9.82;74.16;103201.34;5054077;28;20032;-35
2022/03/22 08:14:21;;;;;;;17.58;15.73;;;;;;;9.89;72.81;103186.97;5056414;28;20193;-35
2022/03/22 08:16:46;;;;;;;18.58;15.93;;;;;;;10.10;73.72;103199.94;5056930;28;20461;-36
2022/03/22 08:19:17;;;;;;;21.77;16.23;;;;;;;10.21;72.38;103207.72;5056199;28;20497;-34
2022/03/22 08:21:43;;;;;;;17.90;15.98;;;;;;;10.38;72.15;103205.00;5055989;28;20116;-34
2022/03/22 08:24:09;;;;;;;18.63;15.02;;;;;;;10.41;71.84;103180.34;5056186;28;20112;-34
2022/03/22 08:26:36;;;;;;;18.48;15.88;;;;;;;10.65;70.52;103203.78;5056434;28;20060;-34
2022/03/22 08:29:01;;;;;;;17.77;15.75;;;;;;;10.76;71.43;103204.22;5055773;28;20032;-35
2022/03/22 08:31:27;;;;;;;17.27;15.48;;;;;;;10.88;70.64;103203.84;5056631;28;20404;-35
2022/03/22 08:33:53;;;;;;;19.63;16.00;;;;;;;10.97;71.14;103208.19;5055755;28;20442;-35
2022/03/22 08:36:20;;;;;;;18.45;15.30;;;;;;;11.05;69.97;103200.06;5056454;28;20020;-35
2022/03/22 08:38:46;;;;;;;;;;;;;;;11.18;69.88;103197.63;5056569;28;20025;-35
2022/03/22 08:41:11;;;;;;;21.45;16.73;;;;;;;11.20;68.55;103184.72;5056458;28;19913;-35
2022/03/22 08:43:37;;;;;;;19.65;16.13;;;;;;;11.39;67.69;103202.41;5055901;28;20358;-35
2022/03/22 08:46:05;;;;;;;20.85;16.77;;;;;;;11.49;67.25;103192.16;5056199;28;20028;-35
2022/03/22 08:48:31;;;;;;;18.90;16.35;;;;;;;11.63;68.33;103193.25;5056027;28;20029;-35
2022/03/22 08:50:57;;;;;;;17.38;15.57;;;;;;;11.74;66.88;103208.25;5056217;28;20460;-35
2022/03/22 08:53:23;;;;;;;20.92;16.45;;;;;;;11.84;66.40;103195.31;5056029;28;20029;-35
2022/03/22 08:55:50;;;;;;;18.75;15.93;;;;;;;11.94;65.96;103200.50;5055909;28;20466;-35
2022/03/22 08:58:16;;;;;;;;;;;;;;;12.05;68.36;103194.63;5055936;28;20363;-35
2022/03/22 09:00:42;;;;;;;18.73;15.20;;;;;;;12.09;65.93;103191.34;5054150;28;19924;-35
2022/03/22 09:03:10;;;;;;;17.23;15.35;;;;;;;12.31;64.15;103203.19;5054105;28;20035;-35
2022/03/22 09:08:19;;;;;;;26.75;20.00;;;;;;;12.49;64.55;103200.13;5055523;28;20128;-35
2022/03/22 09:10:46;;;;;;;26.60;19.48;;;;;;;12.56;63.92;103197.50;5055674;28;20100;-35
2022/03/22 09:13:13;;;;;;;28.83;21.05;;;;;;;12.72;63.65;103193.75;5055618;28;20090;-35
2022/03/22 09:15:39;;;;;;;31.45;23.85;;;;;;;12.79;63.10;103197.41;5055231;28;20527;-35
2022/03/22 09:18:13;;;;;;;26.77;19.02;;;;;;;12.86;63.37;103191.03;5055334;28;20063;-35
2022/03/22 09:20:39;;;;;;;28.40;21.00;;;;;;;13.01;62.11;103190.16;5055867;28;20033;-35
2022/03/22 09:23:04;;;;;;;23.27;19.58;;;;;;;13.02;61.53;103175.53;5054981;28;20054;-35
2022/03/22 09:25:30;;;;;;;22.17;17.33;;;;;;;13.15;61.95;103181.97;5055051;28;20499;-35
2022/03/22 09:27:56;;;;;;;19.63;17.17;;;;;;;13.27;59.61;103197.81;5055276;28;20376;-35
2022/03/22 09:30:22;;;;;;;21.15;17.15;;;;;;;13.38;60.13;103192.72;5055692;28;20603;-34
2022/03/22 09:32:47;;;;;;;22.75;17.40;;;;;;;13.41;59.87;103175.19;5055126;28;20032;-34
2022/03/22 09:35:17;;;;;;;19.92;17.30;;;;;;;13.51;58.07;103186.56;5055416;28;20439;-34
2022/03/22 09:37:43;;;;;;;20.60;17.85;;;;;;;13.56;59.35;103177.84;5054781;28;20037;-35
2022/03/22 09:40:11;;;;;;;19.58;16.27;;;;;;;13.69;58.26;103193.44;5055019;28;20492;-34
2022/03/22 09:42:38;;;;;;;18.95;15.48;;;;;;;13.81;57.73;103191.88;5054681;28;20414;-34
2022/03/22 09:45:08;;;;;;;19.15;16.17;;;;;;;13.91;57.81;103168.75;5054391;28;20056;-34
2022/03/22 09:47:35;;;;;;;19.83;16.13;;;;;;;14.06;57.08;103185.00;5054681;28;20457;-34
2022/03/22 09:50:02;;;;;;;19.30;15.82;;;;;;;14.18;56.77;103185.28;5054761;28;20373;-34
2022/03/22 09:52:28;;;;;;;20.40;16.20;;;;;;;14.18;56.65;103175.22;5054156;28;20025;-35
2022/03/22 09:54:53;;;;;;;17.95;15.98;;;;;;;14.32;56.82;103178.06;5054789;28;20044;-35
2022/03/22 09:57:19;;;;;;;22.23;17.05;;;;;;;14.39;55.94;103176.19;5054455;28;20108;-35
2022/03/22 09:59:44;;;;;;;20.03;15.97;;;;;;;14.49;54.17;103174.00;5055331;28;20031;-35
2022/03/22 10:02:10;;;;;;;19.90;15.07;;;;;;;14.52;54.94;103170.03;5054342;28;20268;-34
2022/03/22 10:04:41;;;;;;;22.00;15.80;;;;;;;14.54;55.00;103148.88;5054902;28;20039;-34
2022/03/22 10:07:08;;;;;;;21.83;16.30;;;;;;;14.72;54.04;103170.13;5054679;28;20036;-35
2022/03/22 10:09:39;;;;;;;21.00;16.90;;;;;;;14.82;54.62;103168.72;5053926;28;20444;-35
2022/03/22 10:12:10;;;;;;;20.02;16.08;;;;;;;14.93;52.61;103159.13;5055000;28;20028;-36
2022/03/22 10:14:38;;;;;;;23.70;16.92;;;;;;;15.02;52.62;103163.34;5054681;28;20355;-36
2022/03/22 10:17:14;;;;;;;20.73;16.95;;;;;;;15.09;52.61;103156.06;5054421;28;20031;-35
2022/03/22 10:19:57;;;;;;;;;;;;;;;15.23;52.95;103162.38;5054942;28;20357;-36
2022/03/22 10:22:25;;;;;;;21.20;15.20;;;;;;;15.34;51.55;103153.59;5054415;28;19909;-35
2022/03/22 10:24:52;;;;;;;20.17;15.45;;;;;;;15.36;50.21;103147.91;5053949;28;20025;-36
2022/03/22 10:27:27;;;;;;;21.95;16.05;;;;;;;15.57;50.21;103147.75;5053838;28;20036;-36
2022/03/22 10:29:55;;;;;;;19.77;15.98;;;;;;;15.61;49.17;103154.44;5054608;28;20080;-36
2022/03/22 10:32:33;;;;;;;23.73;16.40;;;;;;;15.75;47.90;103154.50;5054289;28;20032;-36
2022/03/22 10:35:32;;;;;;;19.88;15.27;;;;;;;15.67;48.79;103147.38;5053051;28;20036;-36
2022/03/22 10:38:03;;;;;;;20.65;16.05;;;;;;;15.76;48.86;103148.00;5045605;28;20052;-35
2022/03/22 10:40:30;;;;;;;19.63;15.57;;;;;;;15.81;47.63;103143.59;5053974;28;20021;-35
2022/03/22 10:43:01;;;;;;;19.60;15.15;;;;;;;15.92;48.03;103147.59;5053804;28;20107;-35
2022/03/22 10:45:28;;;;;;;20.58;15.45;;;;;;;16.08;47.40;103146.31;5053633;28;20429;-34
2022/03/22 10:47:55;;;;;;;18.25;15.20;;;;;;;16.11;47.38;103145.88;5053660;28;20025;-35
2022/03/22 10:50:22;;;;;;;20.48;16.30;;;;;;;16.18;46.83;103139.34;5053528;28;20111;-35
2022/03/22 10:52:57;;;;;;;19.80;14.73;;;;;;;16.27;45.57;103153.63;5053600;28;20025;-35
2022/03/22 10:55:27;;;;;;;23.13;16.80;;;;;;;16.11;44.30;103137.69;5054355;28;20342;-35
2022/03/22 10:57:55;;;;;;;21.90;15.68;;;;;;;16.37;47.30;103145.00;5053644;28;20036;-35
2022/03/22 11:00:21;;;;;;;19.48;15.77;;;;;;;16.31;43.45;103124.00;5053413;28;20521;-35
2022/03/22 11:02:49;;;;;;;20.45;15.52;;;;;;;16.49;44.60;103140.53;5053134;28;20416;-35
2022/03/22 11:05:15;;;;;;;22.58;15.82;;;;;;;16.65;45.38;103123.69;5053198;28;20033;-35
2022/03/22 11:07:42;;;;;;;17.90;14.70;;;;;;;16.76;44.97;103137.75;5053082;28;20530;-36
2022/03/22 11:10:08;;;;;;;19.27;14.15;;;;;;;16.86;43.48;103133.47;5053428;28;20024;-35
2022/03/22 11:12:34;;;;;;;18.25;14.48;;;;;;;16.77;44.14;103123.03;5052909;28;20373;-36
2022/03/22 11:15:02;;;;;;;19.17;14.82;;;;;;;16.92;45.61;103112.66;5053355;28;20420;-36
2022/03/22 11:17:34;;;;;;;18.75;15.32;;;;;;;16.91;43.85;103100.03;5053445;28;20028;-36
2022/03/22 11:20:04;;;;;;;19.05;16.05;;;;;;;17.12;44.46;103131.66;5053083;28;20029;-36
2022/03/22 11:22:31;;;;;;;23.05;14.85;;;;;;;17.20;45.25;103112.28;5053185;28;20049;-37
2022/03/22 11:25:10;;;;;;;20.38;15.88;;;;;;;17.21;43.27;103113.94;5053052;28;20025;-36
2022/03/22 11:27:36;;;;;;;19.83;14.68;;;;;;;17.39;43.68;103119.50;5053020;28;20024;-35
2022/03/22 11:30:03;;;;;;;23.52;15.57;;;;;;;17.51;42.54;103120.44;5052852;28;20381;-36
2022/03/22 11:35:15;;;;;;;16.98;13.73;;;;;;;17.58;41.68;103114.94;5053274;28;20044;-36
2022/03/22 11:38:08;;;;;;;18.10;14.50;;;;;;;17.64;40.35;103116.78;5052562;28;20481;-37
2022/03/22 11:43:17;;;;;;;15.95;12.90;;;;;;;17.66;41.05;103114.63;5053188;28;20151;-36
2022/03/22 11:45:50;;;;;;;;;;;;;;;17.77;41.45;103112.31;5054593;28;20040;-36
2022/03/22 11:48:16;;;;;;;19.40;13.93;;;;;;;17.79;41.24;103108.25;5056569;28;20082;-35
2022/03/22 11:50:45;;;;;;;18.60;14.13;;;;;;;17.80;41.71;103098.16;5056724;28;20075;-35
2022/03/22 11:53:18;;;;;;;18.38;13.13;;;;;;;17.87;40.26;103107.16;5056927;28;20519;-35
2022/03/22 11:55:48;;;;;;;19.20;14.68;;;;;;;17.88;41.53;103112.38;5056620;28;20074;-35
2022/03/22 11:58:13;;;;;;;18.65;14.80;;;;;;;18.06;40.52;103103.38;5056582;28;20108;-36